sensor_id;sensor_type;location;lat;lon;timestamp;P1;durP1;ratioP1;P2;durP2;ratioP2
35576;SDS011;21680;52.400;16.920;2024-03-06T00:02:18;27.00;;;13.20;;
35576;SDS011;21680;52.400;16.920;2024-03-06T00:04:43;25.30;;;13.00;;
35576;SDS011;21680;52.400;16.920;2024-03-06T00:07:09;27.40;;;13.50;;
35576;SDS011;21680;52.400;16.920;2024-03-06T00:09:34;28.10;;;13.60;;
35576;SDS011;21680;52.400;16.920;2024-03-06T00:11:59;27.70;;;13.80;;
35576;SDS011;21680;52.400;16.920;2024-03-06T00:14:25;24.70;;;13.40;;
35576;SDS011;21680;52.400;16.920;2024-03-06T00:16:50;30.00;;;13.80;;
35576;SDS011;21680;52.400;16.920;2024-03-06T00:19:16;27.20;;;14.70;;
35576;SDS011;21680;52.400;16.920;2024-03-06T00:21:42;24.60;;;14.20;;
35576;SDS011;21680;52.400;16.920;2024-03-06T00:24:07;27.20;;;13.60;;
35576;SDS011;21680;52.400;16.920;2024-03-06T00:26:33;29.20;;;15.10;;
35576;SDS011;21680;52.400;16.920;2024-03-06T00:28:58;27.20;;;13.70;;
35576;SDS011;21680;52.400;16.920;2024-03-06T00:31:23;31.50;;;14.40;;
35576;SDS011;21680;52.400;16.920;2024-03-06T00:33:48;30.40;;;15.60;;
35576;SDS011;21680;52.400;16.920;2024-03-06T00:36:14;34.40;;;16.00;;
35576;SDS011;21680;52.400;16.920;2024-03-06T00:38:39;33.90;;;15.00;;
35576;SDS011;21680;52.400;16.920;2024-03-06T00:41:04;29.70;;;14.90;;
35576;SDS011;21680;52.400;16.920;2024-03-06T00:43:30;29.30;;;14.90;;
35576;SDS011;21680;52.400;16.920;2024-03-06T00:45:55;29.60;;;15.10;;
35576;SDS011;21680;52.400;16.920;2024-03-06T00:48:21;31.20;;;16.80;;
35576;SDS011;21680;52.400;16.920;2024-03-06T00:50:46;31.00;;;16.00;;
35576;SDS011;21680;52.400;16.920;2024-03-06T00:53:12;27.40;;;15.30;;
35576;SDS011;21680;52.400;16.920;2024-03-06T00:55:37;26.70;;;15.00;;
35576;SDS011;21680;52.400;16.920;2024-03-06T00:58:02;35.90;;;16.60;;
35576;SDS011;21680;52.400;16.920;2024-03-06T01:00:29;33.90;;;16.90;;
35576;SDS011;21680;52.400;16.920;2024-03-06T01:02:54;34.60;;;16.50;;
35576;SDS011;21680;52.400;16.920;2024-03-06T01:05:19;40.10;;;16.90;;
35576;SDS011;21680;52.400;16.920;2024-03-06T01:07:45;31.30;;;15.80;;
35576;SDS011;21680;52.400;16.920;2024-03-06T01:10:10;33.60;;;16.60;;
35576;SDS011;21680;52.400;16.920;2024-03-06T01:12:35;38.20;;;15.80;;
35576;SDS011;21680;52.400;16.920;2024-03-06T01:15:01;38.50;;;17.60;;
35576;SDS011;21680;52.400;16.920;2024-03-06T01:17:26;40.50;;;16.60;;
35576;SDS011;21680;52.400;16.920;2024-03-06T01:19:52;30.90;;;16.00;;
35576;SDS011;21680;52.400;16.920;2024-03-06T01:22:17;32.20;;;16.30;;
35576;SDS011;21680;52.400;16.920;2024-03-06T01:24:43;31.10;;;16.10;;
35576;SDS011;21680;52.400;16.920;2024-03-06T01:27:08;31.60;;;15.70;;
35576;SDS011;21680;52.400;16.920;2024-03-06T01:29:34;32.80;;;16.20;;
35576;SDS011;21680;52.400;16.920;2024-03-06T01:31:59;30.00;;;15.30;;
35576;SDS011;21680;52.400;16.920;2024-03-06T01:34:24;28.80;;;15.10;;
35576;SDS011;21680;52.400;16.920;2024-03-06T01:36:51;30.00;;;14.80;;
35576;SDS011;21680;52.400;16.920;2024-03-06T01:39:36;31.60;;;15.60;;
35576;SDS011;21680;52.400;16.920;2024-03-06T01:42:02;29.50;;;15.10;;
35576;SDS011;21680;52.400;16.920;2024-03-06T01:44:28;34.20;;;15.80;;
35576;SDS011;21680;52.400;16.920;2024-03-06T01:46:54;36.00;;;15.90;;
35576;SDS011;21680;52.400;16.920;2024-03-06T01:49:19;30.10;;;15.40;;
35576;SDS011;21680;52.400;16.920;2024-03-06T01:51:48;27.90;;;14.70;;
35576;SDS011;21680;52.400;16.920;2024-03-06T01:54:15;27.70;;;15.50;;
35576;SDS011;21680;52.400;16.920;2024-03-06T01:56:44;28.20;;;14.10;;
35576;SDS011;21680;52.400;16.920;2024-03-06T01:59:11;27.50;;;14.50;;
35576;SDS011;21680;52.400;16.920;2024-03-06T02:01:37;31.90;;;15.00;;
35576;SDS011;21680;52.400;16.920;2024-03-06T02:04:04;25.70;;;13.60;;
35576;SDS011;21680;52.400;16.920;2024-03-06T02:06:31;32.20;;;13.70;;
35576;SDS011;21680;52.400;16.920;2024-03-06T02:08:57;24.70;;;13.40;;
35576;SDS011;21680;52.400;16.920;2024-03-06T02:11:22;21.40;;;11.90;;
35576;SDS011;21680;52.400;16.920;2024-03-06T02:13:49;25.70;;;12.80;;
35576;SDS011;21680;52.400;16.920;2024-03-06T02:16:15;21.10;;;11.80;;
35576;SDS011;21680;52.400;16.920;2024-03-06T02:18:56;27.20;;;12.20;;
35576;SDS011;21680;52.400;16.920;2024-03-06T02:21:24;22.00;;;11.50;;
35576;SDS011;21680;52.400;16.920;2024-03-06T02:23:50;23.00;;;10.90;;
35576;SDS011;21680;52.400;16.920;2024-03-06T02:26:20;25.00;;;11.60;;
35576;SDS011;21680;52.400;16.920;2024-03-06T02:28:47;21.50;;;10.90;;
35576;SDS011;21680;52.400;16.920;2024-03-06T02:31:14;24.00;;;11.40;;
35576;SDS011;21680;52.400;16.920;2024-03-06T02:33:40;21.20;;;10.20;;
35576;SDS011;21680;52.400;16.920;2024-03-06T02:36:06;20.40;;;10.60;;
35576;SDS011;21680;52.400;16.920;2024-03-06T02:38:31;20.80;;;10.70;;
35576;SDS011;21680;52.400;16.920;2024-03-06T02:40:58;20.00;;;10.10;;
35576;SDS011;21680;52.400;16.920;2024-03-06T02:43:24;15.30;;;9.00;;
35576;SDS011;21680;52.400;16.920;2024-03-06T02:45:49;15.60;;;9.10;;
35576;SDS011;21680;52.400;16.920;2024-03-06T02:48:14;12.70;;;8.00;;
35576;SDS011;21680;52.400;16.920;2024-03-06T02:50:40;16.00;;;8.40;;
35576;SDS011;21680;52.400;16.920;2024-03-06T02:53:05;18.20;;;8.40;;
35576;SDS011;21680;52.400;16.920;2024-03-06T02:55:31;12.60;;;7.80;;
35576;SDS011;21680;52.400;16.920;2024-03-06T02:57:56;13.50;;;8.00;;
35576;SDS011;21680;52.400;16.920;2024-03-06T03:00:21;14.60;;;8.90;;
35576;SDS011;21680;52.400;16.920;2024-03-06T03:02:47;15.20;;;8.40;;
35576;SDS011;21680;52.400;16.920;2024-03-06T03:05:12;18.20;;;8.70;;
35576;SDS011;21680;52.400;16.920;2024-03-06T03:07:37;17.20;;;8.30;;
35576;SDS011;21680;52.400;16.920;2024-03-06T03:10:03;15.00;;;8.80;;
35576;SDS011;21680;52.400;16.920;2024-03-06T03:12:29;15.20;;;9.00;;
35576;SDS011;21680;52.400;16.920;2024-03-06T03:14:55;15.70;;;9.70;;
35576;SDS011;21680;52.400;16.920;2024-03-06T03:17:20;13.10;;;8.10;;
35576;SDS011;21680;52.400;16.920;2024-03-06T03:19:45;13.90;;;8.60;;
35576;SDS011;21680;52.400;16.920;2024-03-06T03:22:10;13.60;;;8.10;;
35576;SDS011;21680;52.400;16.920;2024-03-06T03:24:36;15.50;;;8.40;;
35576;SDS011;21680;52.400;16.920;2024-03-06T03:27:02;13.80;;;7.80;;
35576;SDS011;21680;52.400;16.920;2024-03-06T03:29:27;13.70;;;8.00;;
35576;SDS011;21680;52.400;16.920;2024-03-06T03:31:53;14.70;;;8.10;;
35576;SDS011;21680;52.400;16.920;2024-03-06T03:34:18;12.70;;;7.90;;
35576;SDS011;21680;52.400;16.920;2024-03-06T03:36:46;13.00;;;7.70;;
35576;SDS011;21680;52.400;16.920;2024-03-06T03:39:12;19.90;;;8.80;;
35576;SDS011;21680;52.400;16.920;2024-03-06T03:41:47;14.30;;;7.90;;
35576;SDS011;21680;52.400;16.920;2024-03-06T03:44:14;13.90;;;7.40;;
35576;SDS011;21680;52.400;16.920;2024-03-06T03:46:40;13.60;;;8.50;;
35576;SDS011;21680;52.400;16.920;2024-03-06T03:49:07;13.70;;;7.80;;
35576;SDS011;21680;52.400;16.920;2024-03-06T03:51:33;11.80;;;7.90;;
35576;SDS011;21680;52.400;16.920;2024-03-06T03:53:59;12.30;;;7.50;;
35576;SDS011;21680;52.400;16.920;2024-03-06T03:56:24;18.40;;;8.80;;
35576;SDS011;21680;52.400;16.920;2024-03-06T03:58:49;12.90;;;8.00;;
35576;SDS011;21680;52.400;16.920;2024-03-06T04:01:14;14.30;;;8.50;;
35576;SDS011;21680;52.400;16.920;2024-03-06T04:03:39;13.80;;;7.90;;
35576;SDS011;21680;52.400;16.920;2024-03-06T04:06:07;13.80;;;8.00;;
35576;SDS011;21680;52.400;16.920;2024-03-06T04:08:33;14.10;;;7.10;;
35576;SDS011;21680;52.400;16.920;2024-03-06T04:10:58;16.40;;;8.60;;
35576;SDS011;21680;52.400;16.920;2024-03-06T04:13:24;19.60;;;8.50;;
35576;SDS011;21680;52.400;16.920;2024-03-06T04:15:49;18.10;;;7.40;;
35576;SDS011;21680;52.400;16.920;2024-03-06T04:18:14;13.40;;;8.40;;
35576;SDS011;21680;52.400;16.920;2024-03-06T04:20:39;15.60;;;8.70;;
35576;SDS011;21680;52.400;16.920;2024-03-06T04:23:05;14.20;;;8.50;;
35576;SDS011;21680;52.400;16.920;2024-03-06T04:25:30;15.80;;;9.00;;
35576;SDS011;21680;52.400;16.920;2024-03-06T04:27:55;15.40;;;8.70;;
35576;SDS011;21680;52.400;16.920;2024-03-06T04:30:20;15.90;;;9.20;;
35576;SDS011;21680;52.400;16.920;2024-03-06T04:32:46;17.30;;;8.90;;
35576;SDS011;21680;52.400;16.920;2024-03-06T04:35:11;15.70;;;8.80;;
35576;SDS011;21680;52.400;16.920;2024-03-06T04:37:36;20.20;;;8.90;;
35576;SDS011;21680;52.400;16.920;2024-03-06T04:40:03;16.60;;;8.90;;
35576;SDS011;21680;52.400;16.920;2024-03-06T04:42:33;20.00;;;9.60;;
35576;SDS011;21680;52.400;16.920;2024-03-06T04:45:00;17.70;;;9.40;;
35576;SDS011;21680;52.400;16.920;2024-03-06T04:47:26;21.60;;;9.20;;
35576;SDS011;21680;52.400;16.920;2024-03-06T04:49:51;20.20;;;9.20;;
35576;SDS011;21680;52.400;16.920;2024-03-06T04:52:16;18.00;;;9.10;;
35576;SDS011;21680;52.400;16.920;2024-03-06T04:54:42;18.80;;;9.80;;
35576;SDS011;21680;52.400;16.920;2024-03-06T04:57:07;24.60;;;11.10;;
35576;SDS011;21680;52.400;16.920;2024-03-06T04:59:34;22.00;;;11.20;;
35576;SDS011;21680;52.400;16.920;2024-03-06T05:01:59;24.10;;;11.50;;
35576;SDS011;21680;52.400;16.920;2024-03-06T05:04:24;34.70;;;14.40;;
35576;SDS011;21680;52.400;16.920;2024-03-06T05:06:50;28.10;;;12.90;;
35576;SDS011;21680;52.400;16.920;2024-03-06T05:09:15;29.00;;;12.40;;
35576;SDS011;21680;52.400;16.920;2024-03-06T05:11:40;31.50;;;13.90;;
35576;SDS011;21680;52.400;16.920;2024-03-06T05:14:05;30.90;;;14.30;;
35576;SDS011;21680;52.400;16.920;2024-03-06T05:16:31;31.30;;;15.30;;
35576;SDS011;21680;52.400;16.920;2024-03-06T05:18:56;36.00;;;16.70;;
35576;SDS011;21680;52.400;16.920;2024-03-06T05:21:21;30.90;;;14.20;;
35576;SDS011;21680;52.400;16.920;2024-03-06T05:23:49;32.40;;;15.50;;
35576;SDS011;21680;52.400;16.920;2024-03-06T05:26:14;30.30;;;15.10;;
35576;SDS011;21680;52.400;16.920;2024-03-06T05:28:40;35.50;;;15.70;;
35576;SDS011;21680;52.400;16.920;2024-03-06T05:31:15;32.20;;;16.20;;
35576;SDS011;21680;52.400;16.920;2024-03-06T05:33:46;33.20;;;16.40;;
35576;SDS011;21680;52.400;16.920;2024-03-06T05:36:12;40.80;;;16.60;;
35576;SDS011;21680;52.400;16.920;2024-03-06T05:38:40;33.30;;;15.70;;
35576;SDS011;21680;52.400;16.920;2024-03-06T05:41:06;36.90;;;16.60;;
35576;SDS011;21680;52.400;16.920;2024-03-06T05:43:31;33.00;;;15.10;;
35576;SDS011;21680;52.400;16.920;2024-03-06T05:45:57;35.10;;;16.00;;
35576;SDS011;21680;52.400;16.920;2024-03-06T05:48:22;43.70;;;18.40;;
35576;SDS011;21680;52.400;16.920;2024-03-06T05:50:49;45.20;;;19.30;;
35576;SDS011;21680;52.400;16.920;2024-03-06T05:53:14;36.00;;;16.60;;
35576;SDS011;21680;52.400;16.920;2024-03-06T05:55:41;38.50;;;17.70;;
35576;SDS011;21680;52.400;16.920;2024-03-06T05:58:06;38.90;;;18.00;;
35576;SDS011;21680;52.400;16.920;2024-03-06T06:00:32;33.50;;;16.70;;
35576;SDS011;21680;52.400;16.920;2024-03-06T06:02:58;42.00;;;17.10;;
35576;SDS011;21680;52.400;16.920;2024-03-06T06:05:23;44.40;;;19.00;;
35576;SDS011;21680;52.400;16.920;2024-03-06T06:07:49;46.50;;;17.50;;
35576;SDS011;21680;52.400;16.920;2024-03-06T06:10:15;44.30;;;18.20;;
35576;SDS011;21680;52.400;16.920;2024-03-06T06:12:40;41.90;;;19.40;;
35576;SDS011;21680;52.400;16.920;2024-03-06T06:15:06;37.30;;;17.80;;
35576;SDS011;21680;52.400;16.920;2024-03-06T06:17:33;44.90;;;19.50;;
35576;SDS011;21680;52.400;16.920;2024-03-06T06:19:59;39.90;;;18.60;;
35576;SDS011;21680;52.400;16.920;2024-03-06T06:22:24;41.70;;;19.10;;
35576;SDS011;21680;52.400;16.920;2024-03-06T06:24:52;45.60;;;18.90;;
35576;SDS011;21680;52.400;16.920;2024-03-06T06:27:20;53.60;;;19.10;;
35576;SDS011;21680;52.400;16.920;2024-03-06T06:29:45;39.50;;;18.20;;
35576;SDS011;21680;52.400;16.920;2024-03-06T06:32:10;41.40;;;18.90;;
35576;SDS011;21680;52.400;16.920;2024-03-06T06:34:35;41.20;;;17.80;;
35576;SDS011;21680;52.400;16.920;2024-03-06T06:37:02;37.60;;;17.70;;
35576;SDS011;21680;52.400;16.920;2024-03-06T06:39:28;38.90;;;17.70;;
35576;SDS011;21680;52.400;16.920;2024-03-06T06:41:53;40.30;;;18.00;;
35576;SDS011;21680;52.400;16.920;2024-03-06T06:44:18;38.50;;;17.90;;
35576;SDS011;21680;52.400;16.920;2024-03-06T06:46:43;39.70;;;18.20;;
35576;SDS011;21680;52.400;16.920;2024-03-06T06:49:09;40.30;;;19.10;;
35576;SDS011;21680;52.400;16.920;2024-03-06T06:51:34;52.60;;;20.40;;
35576;SDS011;21680;52.400;16.920;2024-03-06T06:54:00;49.90;;;20.00;;
35576;SDS011;21680;52.400;16.920;2024-03-06T06:56:25;51.30;;;19.70;;
35576;SDS011;21680;52.400;16.920;2024-03-06T06:58:50;48.60;;;19.40;;
35576;SDS011;21680;52.400;16.920;2024-03-06T07:01:16;57.40;;;19.50;;
35576;SDS011;21680;52.400;16.920;2024-03-06T07:03:42;43.90;;;17.90;;
35576;SDS011;21680;52.400;16.920;2024-03-06T07:06:07;51.40;;;20.10;;
35576;SDS011;21680;52.400;16.920;2024-03-06T07:08:33;55.70;;;22.70;;
35576;SDS011;21680;52.400;16.920;2024-03-06T07:10:59;48.40;;;20.30;;
35576;SDS011;21680;52.400;16.920;2024-03-06T07:13:24;53.30;;;20.90;;
35576;SDS011;21680;52.400;16.920;2024-03-06T07:15:49;49.10;;;21.80;;
35576;SDS011;21680;52.400;16.920;2024-03-06T07:18:14;72.60;;;24.20;;
35576;SDS011;21680;52.400;16.920;2024-03-06T07:20:40;56.60;;;22.20;;
35576;SDS011;21680;52.400;16.920;2024-03-06T07:23:06;74.20;;;24.00;;
35576;SDS011;21680;52.400;16.920;2024-03-06T07:25:32;75.00;;;24.30;;
35576;SDS011;21680;52.400;16.920;2024-03-06T07:27:57;62.90;;;22.60;;
35576;SDS011;21680;52.400;16.920;2024-03-06T07:30:22;56.10;;;22.80;;
35576;SDS011;21680;52.400;16.920;2024-03-06T07:32:47;60.60;;;23.50;;
35576;SDS011;21680;52.400;16.920;2024-03-06T07:35:13;59.20;;;24.00;;
35576;SDS011;21680;52.400;16.920;2024-03-06T07:37:39;55.90;;;23.70;;
35576;SDS011;21680;52.400;16.920;2024-03-06T07:40:04;59.40;;;23.90;;
35576;SDS011;21680;52.400;16.920;2024-03-06T07:42:31;51.60;;;22.60;;
35576;SDS011;21680;52.400;16.920;2024-03-06T07:44:58;44.50;;;21.60;;
35576;SDS011;21680;52.400;16.920;2024-03-06T07:47:23;50.70;;;23.70;;
35576;SDS011;21680;52.400;16.920;2024-03-06T07:49:48;55.80;;;22.30;;
35576;SDS011;21680;52.400;16.920;2024-03-06T07:52:15;46.90;;;21.10;;
35576;SDS011;21680;52.400;16.920;2024-03-06T07:54:40;41.00;;;20.00;;
35576;SDS011;21680;52.400;16.920;2024-03-06T07:57:06;47.10;;;20.40;;
35576;SDS011;21680;52.400;16.920;2024-03-06T07:59:31;52.10;;;23.00;;
35576;SDS011;21680;52.400;16.920;2024-03-06T08:01:56;46.40;;;21.40;;
35576;SDS011;21680;52.400;16.920;2024-03-06T08:04:22;46.50;;;21.00;;
35576;SDS011;21680;52.400;16.920;2024-03-06T08:06:48;48.80;;;20.80;;
35576;SDS011;21680;52.400;16.920;2024-03-06T08:09:13;51.30;;;22.90;;
35576;SDS011;21680;52.400;16.920;2024-03-06T08:11:41;52.60;;;21.90;;
35576;SDS011;21680;52.400;16.920;2024-03-06T08:14:07;44.70;;;20.00;;
35576;SDS011;21680;52.400;16.920;2024-03-06T08:16:32;57.10;;;22.50;;
35576;SDS011;21680;52.400;16.920;2024-03-06T08:18:58;41.70;;;19.90;;
35576;SDS011;21680;52.400;16.920;2024-03-06T08:21:25;55.60;;;21.80;;
35576;SDS011;21680;52.400;16.920;2024-03-06T08:23:51;49.10;;;21.60;;
35576;SDS011;21680;52.400;16.920;2024-03-06T08:26:16;54.10;;;21.30;;
35576;SDS011;21680;52.400;16.920;2024-03-06T08:28:41;45.90;;;21.70;;
35576;SDS011;21680;52.400;16.920;2024-03-06T08:31:07;49.60;;;21.70;;
35576;SDS011;21680;52.400;16.920;2024-03-06T08:33:33;51.60;;;21.80;;
35576;SDS011;21680;52.400;16.920;2024-03-06T08:35:59;51.50;;;22.20;;
35576;SDS011;21680;52.400;16.920;2024-03-06T08:38:24;54.20;;;22.10;;
35576;SDS011;21680;52.400;16.920;2024-03-06T08:40:50;44.10;;;20.60;;
35576;SDS011;21680;52.400;16.920;2024-03-06T08:43:16;42.80;;;18.80;;
35576;SDS011;21680;52.400;16.920;2024-03-06T08:45:44;44.10;;;19.70;;
35576;SDS011;21680;52.400;16.920;2024-03-06T08:48:10;42.20;;;18.30;;
35576;SDS011;21680;52.400;16.920;2024-03-06T08:50:36;39.20;;;18.20;;
35576;SDS011;21680;52.400;16.920;2024-03-06T08:53:02;48.30;;;18.70;;
35576;SDS011;21680;52.400;16.920;2024-03-06T08:55:27;42.50;;;19.40;;
35576;SDS011;21680;52.400;16.920;2024-03-06T08:57:53;38.00;;;18.80;;
35576;SDS011;21680;52.400;16.920;2024-03-06T09:00:19;46.80;;;18.40;;
35576;SDS011;21680;52.400;16.920;2024-03-06T09:02:44;40.10;;;19.60;;
35576;SDS011;21680;52.400;16.920;2024-03-06T09:05:10;43.30;;;19.10;;
35576;SDS011;21680;52.400;16.920;2024-03-06T09:07:38;38.80;;;18.60;;
35576;SDS011;21680;52.400;16.920;2024-03-06T09:10:06;44.80;;;17.40;;
35576;SDS011;21680;52.400;16.920;2024-03-06T09:12:38;43.30;;;19.10;;
35576;SDS011;21680;52.400;16.920;2024-03-06T09:15:04;49.40;;;19.40;;
35576;SDS011;21680;52.400;16.920;2024-03-06T09:17:33;46.60;;;19.60;;
35576;SDS011;21680;52.400;16.920;2024-03-06T09:19:59;48.00;;;20.00;;
35576;SDS011;21680;52.400;16.920;2024-03-06T09:22:29;42.60;;;19.30;;
35576;SDS011;21680;52.400;16.920;2024-03-06T09:24:54;49.00;;;19.60;;
35576;SDS011;21680;52.400;16.920;2024-03-06T09:27:20;48.20;;;20.70;;
35576;SDS011;21680;52.400;16.920;2024-03-06T09:29:46;42.30;;;19.40;;
35576;SDS011;21680;52.400;16.920;2024-03-06T09:32:12;54.00;;;20.80;;
35576;SDS011;21680;52.400;16.920;2024-03-06T09:34:40;48.50;;;20.20;;
35576;SDS011;21680;52.400;16.920;2024-03-06T09:37:06;45.70;;;19.90;;
35576;SDS011;21680;52.400;16.920;2024-03-06T09:39:31;38.80;;;19.30;;
35576;SDS011;21680;52.400;16.920;2024-03-06T09:41:56;44.90;;;18.80;;
35576;SDS011;21680;52.400;16.920;2024-03-06T09:44:24;43.30;;;19.30;;
35576;SDS011;21680;52.400;16.920;2024-03-06T09:46:50;40.10;;;18.30;;
35576;SDS011;21680;52.400;16.920;2024-03-06T09:49:17;39.40;;;18.70;;
35576;SDS011;21680;52.400;16.920;2024-03-06T09:51:46;36.10;;;17.30;;
35576;SDS011;21680;52.400;16.920;2024-03-06T09:54:18;46.80;;;18.40;;
35576;SDS011;21680;52.400;16.920;2024-03-06T09:56:44;36.70;;;18.10;;
35576;SDS011;21680;52.400;16.920;2024-03-06T09:59:10;49.10;;;20.80;;
35576;SDS011;21680;52.400;16.920;2024-03-06T10:01:55;41.70;;;18.70;;
35576;SDS011;21680;52.400;16.920;2024-03-06T10:06:50;38.30;;;17.30;;
35576;SDS011;21680;52.400;16.920;2024-03-06T10:09:20;42.90;;;18.60;;
35576;SDS011;21680;52.400;16.920;2024-03-06T10:11:46;44.30;;;18.60;;
35576;SDS011;21680;52.400;16.920;2024-03-06T10:14:12;42.70;;;18.20;;
35576;SDS011;21680;52.400;16.920;2024-03-06T10:16:51;38.20;;;17.30;;
35576;SDS011;21680;52.400;16.920;2024-03-06T10:19:23;41.50;;;17.80;;
35576;SDS011;21680;52.400;16.920;2024-03-06T10:21:52;40.10;;;18.10;;
35576;SDS011;21680;52.400;16.920;2024-03-06T10:24:18;42.80;;;18.30;;
35576;SDS011;21680;52.400;16.920;2024-03-06T10:26:45;39.00;;;16.40;;
35576;SDS011;21680;52.400;16.920;2024-03-06T10:29:14;37.90;;;17.00;;
35576;SDS011;21680;52.400;16.920;2024-03-06T10:31:46;39.30;;;18.00;;
35576;SDS011;21680;52.400;16.920;2024-03-06T10:34:12;34.50;;;16.70;;
35576;SDS011;21680;52.400;16.920;2024-03-06T10:36:38;39.70;;;17.80;;
35576;SDS011;21680;52.400;16.920;2024-03-06T10:39:03;40.00;;;18.80;;
35576;SDS011;21680;52.400;16.920;2024-03-06T10:41:32;37.20;;;18.30;;
35576;SDS011;21680;52.400;16.920;2024-03-06T10:43:59;44.20;;;19.60;;
35576;SDS011;21680;52.400;16.920;2024-03-06T10:46:27;44.70;;;19.10;;
35576;SDS011;21680;52.400;16.920;2024-03-06T10:48:53;45.60;;;18.80;;
35576;SDS011;21680;52.400;16.920;2024-03-06T10:51:20;45.80;;;19.40;;
35576;SDS011;21680;52.400;16.920;2024-03-06T10:53:47;50.60;;;20.30;;
35576;SDS011;21680;52.400;16.920;2024-03-06T10:56:15;45.70;;;21.80;;
35576;SDS011;21680;52.400;16.920;2024-03-06T10:58:42;57.80;;;21.10;;
35576;SDS011;21680;52.400;16.920;2024-03-06T11:01:09;55.20;;;21.40;;
35576;SDS011;21680;52.400;16.920;2024-03-06T11:03:35;45.40;;;20.30;;
35576;SDS011;21680;52.400;16.920;2024-03-06T11:06:01;47.30;;;20.10;;
35576;SDS011;21680;52.400;16.920;2024-03-06T11:08:27;52.40;;;21.10;;
35576;SDS011;21680;52.400;16.920;2024-03-06T11:10:53;45.50;;;21.50;;
35576;SDS011;21680;52.400;16.920;2024-03-06T11:13:39;58.30;;;22.20;;
35576;SDS011;21680;52.400;16.920;2024-03-06T11:16:05;52.70;;;23.60;;
35576;SDS011;21680;52.400;16.920;2024-03-06T11:21:44;50.30;;;22.70;;
35576;SDS011;21680;52.400;16.920;2024-03-06T11:24:33;49.70;;;22.20;;
35576;SDS011;21680;52.400;16.920;2024-03-06T11:26:35;50.50;;;23.40;;
35576;SDS011;21680;52.400;16.920;2024-03-06T11:29:00;56.50;;;23.10;;
35576;SDS011;21680;52.400;16.920;2024-03-06T11:31:26;56.80;;;23.80;;
35576;SDS011;21680;52.400;16.920;2024-03-06T11:33:53;59.40;;;24.90;;
35576;SDS011;21680;52.400;16.920;2024-03-06T11:38:57;55.80;;;25.70;;
35576;SDS011;21680;52.400;16.920;2024-03-06T11:41:25;54.80;;;24.50;;
35576;SDS011;21680;52.400;16.920;2024-03-06T11:43:52;55.60;;;25.10;;
35576;SDS011;21680;52.400;16.920;2024-03-06T11:46:41;59.30;;;24.50;;
35576;SDS011;21680;52.400;16.920;2024-03-06T11:49:16;57.20;;;23.60;;
35576;SDS011;21680;52.400;16.920;2024-03-06T11:51:57;52.80;;;23.40;;
35576;SDS011;21680;52.400;16.920;2024-03-06T11:54:24;50.40;;;23.40;;
35576;SDS011;21680;52.400;16.920;2024-03-06T11:56:52;51.20;;;23.60;;
35576;SDS011;21680;52.400;16.920;2024-03-06T11:59:22;56.80;;;24.90;;
35576;SDS011;21680;52.400;16.920;2024-03-06T12:01:55;49.20;;;22.60;;
35576;SDS011;21680;52.400;16.920;2024-03-06T12:04:22;58.00;;;25.20;;
35576;SDS011;21680;52.400;16.920;2024-03-06T12:06:49;45.10;;;21.30;;
35576;SDS011;21680;52.400;16.920;2024-03-06T12:09:14;47.90;;;22.70;;
35576;SDS011;21680;52.400;16.920;2024-03-06T12:11:41;51.80;;;23.30;;
35576;SDS011;21680;52.400;16.920;2024-03-06T12:14:14;45.50;;;21.10;;
35576;SDS011;21680;52.400;16.920;2024-03-06T12:16:55;48.80;;;22.20;;
35576;SDS011;21680;52.400;16.920;2024-03-06T12:19:21;51.00;;;22.40;;
35576;SDS011;21680;52.400;16.920;2024-03-06T12:21:47;47.40;;;21.50;;
35576;SDS011;21680;52.400;16.920;2024-03-06T12:24:15;50.40;;;22.30;;
35576;SDS011;21680;52.400;16.920;2024-03-06T12:26:43;50.00;;;21.50;;
35576;SDS011;21680;52.400;16.920;2024-03-06T12:29:09;51.50;;;20.70;;
35576;SDS011;21680;52.400;16.920;2024-03-06T12:31:37;46.80;;;20.20;;
35576;SDS011;21680;52.400;16.920;2024-03-06T12:34:04;54.80;;;23.50;;
35576;SDS011;21680;52.400;16.920;2024-03-06T12:36:31;50.20;;;21.90;;
35576;SDS011;21680;52.400;16.920;2024-03-06T12:39:00;45.90;;;21.10;;
35576;SDS011;21680;52.400;16.920;2024-03-06T12:41:27;44.30;;;20.60;;
35576;SDS011;21680;52.400;16.920;2024-03-06T12:43:54;48.90;;;21.60;;
35576;SDS011;21680;52.400;16.920;2024-03-06T12:46:21;46.00;;;21.10;;
35576;SDS011;21680;52.400;16.920;2024-03-06T12:48:47;46.00;;;20.80;;
35576;SDS011;21680;52.400;16.920;2024-03-06T12:51:13;49.90;;;20.70;;
35576;SDS011;21680;52.400;16.920;2024-03-06T12:53:38;54.80;;;21.10;;
35576;SDS011;21680;52.400;16.920;2024-03-06T12:56:05;49.90;;;21.20;;
35576;SDS011;21680;52.400;16.920;2024-03-06T12:58:31;46.30;;;21.50;;
35576;SDS011;21680;52.400;16.920;2024-03-06T13:00:56;47.00;;;21.80;;
35576;SDS011;21680;52.400;16.920;2024-03-06T13:03:22;45.90;;;21.80;;
35576;SDS011;21680;52.400;16.920;2024-03-06T13:05:48;44.00;;;21.90;;
35576;SDS011;21680;52.400;16.920;2024-03-06T13:08:13;52.30;;;23.60;;
35576;SDS011;21680;52.400;16.920;2024-03-06T13:10:39;43.00;;;20.50;;
35576;SDS011;21680;52.400;16.920;2024-03-06T13:13:05;48.90;;;21.60;;
35576;SDS011;21680;52.400;16.920;2024-03-06T13:15:32;44.10;;;21.50;;
35576;SDS011;21680;52.400;16.920;2024-03-06T13:17:59;43.30;;;21.10;;
35576;SDS011;21680;52.400;16.920;2024-03-06T13:20:24;49.70;;;22.50;;
35576;SDS011;21680;52.400;16.920;2024-03-06T13:22:50;44.80;;;21.30;;
35576;SDS011;21680;52.400;16.920;2024-03-06T13:25:15;46.30;;;21.80;;
35576;SDS011;21680;52.400;16.920;2024-03-06T13:27:44;48.00;;;23.20;;
35576;SDS011;21680;52.400;16.920;2024-03-06T13:30:09;50.40;;;22.60;;
35576;SDS011;21680;52.400;16.920;2024-03-06T13:32:37;58.00;;;23.70;;
35576;SDS011;21680;52.400;16.920;2024-03-06T13:35:02;50.60;;;22.80;;
35576;SDS011;21680;52.400;16.920;2024-03-06T13:37:28;50.80;;;23.70;;
35576;SDS011;21680;52.400;16.920;2024-03-06T13:39:53;45.10;;;22.80;;
35576;SDS011;21680;52.400;16.920;2024-03-06T13:42:23;55.00;;;23.80;;
35576;SDS011;21680;52.400;16.920;2024-03-06T13:44:48;57.00;;;25.60;;
35576;SDS011;21680;52.400;16.920;2024-03-06T13:47:15;55.10;;;25.30;;
35576;SDS011;21680;52.400;16.920;2024-03-06T13:49:43;52.10;;;24.20;;
35576;SDS011;21680;52.400;16.920;2024-03-06T13:52:09;53.50;;;23.30;;
35576;SDS011;21680;52.400;16.920;2024-03-06T13:57:06;57.30;;;24.30;;
35576;SDS011;21680;52.400;16.920;2024-03-06T13:59:33;52.10;;;23.50;;
35576;SDS011;21680;52.400;16.920;2024-03-06T14:02:00;54.70;;;24.90;;
35576;SDS011;21680;52.400;16.920;2024-03-06T14:04:26;55.50;;;23.90;;
35576;SDS011;21680;52.400;16.920;2024-03-06T14:06:52;55.10;;;25.70;;
35576;SDS011;21680;52.400;16.920;2024-03-06T14:09:17;54.30;;;24.10;;
35576;SDS011;21680;52.400;16.920;2024-03-06T14:11:42;53.00;;;24.60;;
35576;SDS011;21680;52.400;16.920;2024-03-06T14:14:08;56.10;;;25.10;;
35576;SDS011;21680;52.400;16.920;2024-03-06T14:16:37;54.10;;;24.90;;
35576;SDS011;21680;52.400;16.920;2024-03-06T14:19:05;58.50;;;24.20;;